Time;durP1;ratioP1;P1;durP2;ratioP2;P2;SDS_P1;SDS_P2;PMS_P1;PMS_P2;Temp;Humidity;BMP_temperature;BMP_pressure;BME280_temperature;BME280_humidity;BME280_pressure;Samples;Min_cycle;Max_cycle;Signal;HPM_P1;HPM_P2
2020/12/13 00:01:39;;;;;;;33.95;19.23;;;180.10;2022.40;;;;;;5049430;28;20017;-67
2020/12/13 00:04:05;;;;;;;27.88;17.13;;;180.10;2048.00;;;;;;5060576;28;20421;-66
2020/12/13 00:06:31;;;;;;;33.35;19.48;;;180.10;2048.00;;;;;;5054607;28;20142;-65
2020/12/13 00:08:58;;;;;;;34.80;18.98;;;180.10;2022.40;;;;;;5055247;28;20029;-64
2020/12/13 00:11:23;;;;;;;38.05;21.60;;;204.80;2048.00;;;;;;5054726;28;20021;-65
2020/12/13 00:13:49;;;;;;;34.97;20.73;;;204.80;2048.00;;;;;;5041775;28;20037;-67
2020/12/13 00:16:16;;;;;;;38.67;20.27;;;204.80;2048.00;;;;;;5060896;28;20056;-65
2020/12/13 00:18:43;;;;;;;33.75;19.25;;;204.80;2048.00;;;;;;5051741;28;20532;-65
2020/12/13 00:21:13;;;;;;;31.50;18.75;;;204.80;2022.40;;;;;;5044069;28;20471;-64
2020/12/13 00:23:40;;;;;;;34.63;19.45;;;204.80;2022.40;;;;;;5068126;28;20056;-69
2020/12/13 00:26:10;;;;;;;34.60;19.58;;;204.80;2022.40;;;;;;5064870;28;20041;-69
2020/12/13 00:28:36;;;;;;;39.08;20.77;;;204.80;2022.40;;;;;;5047947;28;20036;-68
2020/12/13 00:31:03;;;;;;;37.17;21.50;;;204.80;2022.40;;;;;;5049158;28;20046;-65
2020/12/13 00:33:30;;;;;;;39.92;21.85;;;180.10;2022.40;;;;;;5060988;28;20037;-65
2020/12/13 00:35:55;;;;;;;38.58;20.85;;;204.80;2048.00;;;;;;5054003;28;20074;-68
2020/12/13 00:38:21;;;;;;;34.00;20.35;;;204.80;2022.40;;;;;;5045612;28;20025;-68
2020/12/13 00:40:51;;;;;;;37.30;18.73;;;204.80;2022.40;;;;;;5041766;28;20469;-67
2020/12/13 00:43:20;;;;;;;34.45;19.13;;;204.80;2022.40;;;;;;5046687;28;20025;-68
2020/12/13 00:45:46;;;;;;;33.88;20.30;;;204.80;2022.40;;;;;;5061865;28;20442;-68
2020/12/13 00:48:12;;;;;;;36.70;19.05;;;204.80;2048.00;;;;;;5061421;28;20045;-68
2020/12/13 00:50:41;;;;;;;30.70;18.55;;;204.80;2022.40;;;;;;5056650;28;20087;-67
2020/12/13 00:53:07;;;;;;;32.45;18.42;;;204.80;2022.40;;;;;;5053619;28;20025;-66
2020/12/13 00:55:33;;;;;;;30.17;17.85;;;204.80;2022.40;;;;;;5057655;28;20052;-67
2020/12/13 00:57:59;;;;;;;31.50;17.67;;;204.80;2022.40;;;;;;5055070;28;20470;-68
2020/12/13 01:00:25;;;;;;;30.40;16.88;;;180.10;2022.40;;;;;;5055265;28;20052;-68
2020/12/13 01:02:57;;;;;;;36.88;19.70;;;180.10;2022.40;;;;;;5051879;28;20047;-69
2020/12/13 01:05:24;;;;;;;37.42;19.73;;;180.10;2022.40;;;;;;5051870;28;20037;-67
2020/12/13 01:07:51;;;;;;;35.03;20.15;;;180.10;2022.40;;;;;;5051092;28;20041;-67
2020/12/13 01:10:21;;;;;;;35.78;19.58;;;180.10;2048.00;;;;;;5053075;28;20025;-67
2020/12/13 01:12:47;;;;;;;35.60;19.85;;;204.80;2022.40;;;;;;5054214;28;20074;-67
2020/12/13 01:15:13;;;;;;;31.75;19.25;;;204.80;2022.40;;;;;;5054095;28;20041;-67
2020/12/13 01:17:44;;;;;;;33.75;19.58;;;204.80;2022.40;;;;;;5051203;28;20024;-68
2020/12/13 01:20:09;;;;;;;35.63;19.85;;;204.80;2022.40;;;;;;5053796;28;20114;-67
2020/12/13 01:22:36;;;;;;;33.97;20.00;;;204.80;2022.40;;;;;;5053555;28;20052;-67
2020/12/13 01:25:04;;;;;;;36.72;21.98;;;204.80;2022.40;;;;;;5053930;28;20025;-66
2020/12/13 01:27:30;;;;;;;35.05;20.25;;;204.80;2022.40;;;;;;5053656;28;20021;-68
2020/12/13 01:29:55;;;;;;;36.65;20.80;;;204.80;2022.40;;;;;;5055836;28;20029;-66
2020/12/13 01:32:21;;;;;;;36.05;20.55;;;204.80;2022.40;;;;;;5055780;28;20476;-68
2020/12/13 01:34:47;;;;;;;33.00;19.38;;;204.80;2022.40;;;;;;5053783;28;20036;-67
2020/12/13 01:37:12;;;;;;;33.42;19.13;;;204.80;2022.40;;;;;;5053589;28;20032;-68
2020/12/13 01:39:38;;;;;;;36.47;20.48;;;204.80;2022.40;;;;;;5053546;28;20025;-67
2020/12/13 01:42:04;;;;;;;36.20;20.23;;;204.80;1996.80;;;;;;5052527;28;20029;-66
2020/12/13 01:44:32;;;;;;;34.08;19.75;;;180.10;2022.40;;;;;;5052714;28;20037;-66
2020/12/13 01:46:59;;;;;;;39.00;20.80;;;204.80;2022.40;;;;;;5053202;28;20120;-66
2020/12/13 01:49:29;;;;;;;34.53;20.08;;;180.10;2022.40;;;;;;5053246;28;20033;-66
2020/12/13 01:54:26;;;;;;;31.02;18.45;;;204.80;2022.40;;;;;;5052143;28;20076;-66
2020/12/13 01:56:54;;;;;;;34.83;19.55;;;204.80;2022.40;;;;;;5059281;28;20025;-67
2020/12/13 01:59:21;;;;;;;31.33;19.00;;;204.80;2022.40;;;;;;5061479;28;20032;-68
2020/12/13 02:01:49;;;;;;;31.58;18.25;;;204.80;2022.40;;;;;;5052249;28;20009;-68
2020/12/13 02:04:22;;;;;;;29.08;17.77;;;204.80;2022.40;;;;;;5052140;28;20078;-67
2020/12/13 02:06:53;;;;;;;28.75;18.05;;;204.80;2022.40;;;;;;5052027;28;20021;-67
2020/12/13 02:09:23;;;;;;;28.80;17.80;;;204.80;2022.40;;;;;;5049982;28;20052;-67
2020/12/13 02:11:50;;;;;;;28.58;17.65;;;204.80;1996.80;;;;;;5052772;28;20025;-67
2020/12/13 02:14:17;;;;;;;27.85;17.58;;;180.10;2022.40;;;;;;5053365;28;20025;-68
2020/12/13 02:16:53;;;;;;;29.25;18.70;;;180.10;1996.80;;;;;;5043257;28;20374;-67
2020/12/13 02:19:20;;;;;;;28.88;17.70;;;180.10;2022.40;;;;;;5051315;28;20048;-68
2020/12/13 02:21:50;;;;;;;27.00;17.60;;;180.00;2022.40;;;;;;5052618;28;20036;-68
2020/12/13 02:24:17;;;;;;;31.30;18.33;;;180.10;2022.40;;;;;;5057385;28;20035;-67
2020/12/13 02:26:45;;;;;;;32.28;20.48;;;180.10;2022.40;;;;;;5061314;28;20079;-68
2020/12/13 02:29:11;;;;;;;31.00;18.58;;;180.10;2022.40;;;;;;5058544;28;20124;-66
2020/12/13 02:31:38;;;;;;;32.72;18.73;;;180.10;2022.40;;;;;;5052422;28;20021;-68
2020/12/13 02:34:05;;;;;;;34.30;20.33;;;180.10;2022.40;;;;;;5052445;28;20064;-67
2020/12/13 02:36:32;;;;;;;32.83;20.38;;;180.10;2022.40;;;;;;5050832;28;20024;-67
2020/12/13 02:38:59;;;;;;;31.98;20.33;;;180.10;1996.80;;;;;;5051797;28;20083;-65
2020/12/13 02:41:25;;;;;;;35.10;19.85;;;180.10;2022.40;;;;;;5051500;28;20024;-66
2020/12/13 02:43:51;;;;;;;34.25;20.50;;;180.00;2022.40;;;;;;5061248;28;20025;-67
2020/12/13 02:46:17;;;;;;;35.92;21.45;;;180.10;2022.40;;;;;;5052999;28;20037;-67
2020/12/13 02:48:42;;;;;;;34.15;21.25;;;180.10;2022.40;;;;;;5052098;28;20028;-68
2020/12/13 02:51:08;;;;;;;39.50;22.95;;;180.10;2022.40;;;;;;5052764;28;20033;-69
2020/12/13 02:53:34;;;;;;;35.42;22.77;;;180.10;2022.40;;;;;;5049938;28;20474;-69
2020/12/13 02:55:59;;;;;;;41.83;23.33;;;180.10;2022.40;;;;;;5051814;28;20049;-68
2020/12/13 02:58:25;;;;;;;40.30;22.85;;;180.10;2022.40;;;;;;5052701;28;20029;-68
2020/12/13 03:00:51;;;;;;;40.97;23.15;;;180.10;2022.40;;;;;;5053228;28;20479;-68
2020/12/13 03:03:16;;;;;;;38.30;23.05;;;180.10;2022.40;;;;;;5052901;28;20013;-67
2020/12/13 03:05:42;;;;;;;40.17;22.23;;;180.10;2022.40;;;;;;5053042;28;20033;-66
2020/12/13 03:08:08;;;;;;;41.45;23.80;;;180.10;2022.40;;;;;;5053082;28;20079;-65
2020/12/13 03:10:34;;;;;;;44.60;24.23;;;180.10;2022.40;;;;;;5053036;28;20056;-66
2020/12/13 03:13:00;;;;;;;42.17;24.45;;;180.10;2022.40;;;;;;5052834;28;20017;-65
2020/12/13 03:15:26;;;;;;;41.58;23.58;;;180.10;2022.40;;;;;;5052906;28;20102;-66
2020/12/13 03:17:51;;;;;;;45.65;25.33;;;180.10;2022.40;;;;;;5052998;28;20024;-65
2020/12/13 03:20:17;;;;;;;41.03;22.38;;;180.10;2022.40;;;;;;5052826;28;20021;-65
2020/12/13 03:22:43;;;;;;;41.80;24.58;;;204.80;2022.40;;;;;;5052678;28;20066;-65
2020/12/13 03:25:08;;;;;;;39.20;22.48;;;180.10;2022.40;;;;;;5052959;28;20025;-65
2020/12/13 03:27:34;;;;;;;40.33;22.38;;;204.80;2022.40;;;;;;5052744;28;20379;-66
2020/12/13 03:30:00;;;;;;;41.47;23.50;;;204.80;2022.40;;;;;;5052892;28;20025;-65
2020/12/13 03:32:26;;;;;;;42.05;23.10;;;180.10;2022.40;;;;;;5056505;28;20059;-64
2020/12/13 03:34:53;;;;;;;48.17;24.38;;;180.10;2022.40;;;;;;5056769;28;20387;-65
2020/12/13 03:37:19;;;;;;;49.28;24.50;;;180.10;2022.40;;;;;;5056923;28;20033;-65
2020/12/13 03:39:45;;;;;;;64.82;30.20;;;204.80;2022.40;;;;;;5056890;28;20043;-66
2020/12/13 03:42:11;;;;;;;60.03;28.35;;;180.10;2022.40;;;;;;5056427;28;20478;-66
2020/12/13 03:44:36;;;;;;;64.50;29.17;;;204.80;2022.40;;;;;;5056294;28;20458;-65
2020/12/13 03:47:02;;;;;;;60.63;27.15;;;180.10;2022.40;;;;;;5056355;28;20031;-65
2020/12/13 03:49:28;;;;;;;48.95;25.27;;;180.10;2022.40;;;;;;5056359;28;20049;-65
2020/12/13 03:51:54;;;;;;;45.30;23.60;;;180.10;2022.40;;;;;;5056152;28;20025;-65
2020/12/13 03:54:19;;;;;;;48.60;25.13;;;180.10;2022.40;;;;;;5034531;28;20053;-65
2020/12/13 03:56:45;;;;;;;50.70;27.75;;;180.10;2022.40;;;;;;5036005;28;20037;-65
2020/12/13 03:59:11;;;;;;;51.83;25.45;;;180.10;2022.40;;;;;;5036509;28;20052;-65
2020/12/13 04:01:36;;;;;;;53.53;26.52;;;204.80;2022.40;;;;;;5036525;28;20455;-65
2020/12/13 04:04:02;;;;;;;47.03;23.92;;;204.80;2022.40;;;;;;5035897;28;20027;-66
2020/12/13 04:06:28;;;;;;;47.72;25.23;;;204.80;2022.40;;;;;;5036338;28;20026;-63
2020/12/13 04:08:54;;;;;;;43.95;24.33;;;180.10;2022.40;;;;;;5036264;28;20140;-63
2020/12/13 04:11:19;;;;;;;48.25;26.05;;;204.80;2022.40;;;;;;5036122;28;20026;-63
2020/12/13 04:13:45;;;;;;;48.03;25.60;;;204.80;2048.00;;;;;;5035834;28;20065;-63
2020/12/13 04:16:12;;;;;;;48.50;26.52;;;180.10;2022.40;;;;;;5035842;28;20049;-63
2020/12/13 04:18:38;;;;;;;48.60;26.27;;;204.80;2022.40;;;;;;5035949;28;20029;-63
2020/12/13 04:21:04;;;;;;;50.65;26.88;;;180.10;2022.40;;;;;;5036085;28;20041;-63
2020/12/13 04:23:33;;;;;;;53.58;26.25;;;204.80;2022.40;;;;;;5035933;28;20102;-63
2020/12/13 04:25:59;;;;;;;50.63;26.38;;;204.80;2022.40;;;;;;5035707;28;20043;-63
2020/12/13 04:28:25;;;;;;;54.35;26.73;;;204.80;2022.40;;;;;;5035686;28;20478;-63
2020/12/13 04:30:50;;;;;;;54.45;27.98;;;204.80;2048.00;;;;;;5035365;28;20030;-62
2020/12/13 04:33:16;;;;;;;51.88;26.27;;;204.80;2022.40;;;;;;5035671;28;20029;-62
2020/12/13 04:35:42;;;;;;;52.97;28.23;;;204.80;2022.40;;;;;;5035675;28;20069;-63
2020/12/13 04:38:07;;;;;;;43.83;25.65;;;204.80;2022.40;;;;;;5035553;28;20029;-63
2020/12/13 04:40:34;;;;;;;51.22;25.92;;;204.80;2048.00;;;;;;5035711;28;20029;-62
2020/12/13 04:43:01;;;;;;;45.83;25.33;;;204.80;2022.40;;;;;;5035481;28;20071;-63
2020/12/13 04:45:27;;;;;;;48.17;25.77;;;204.80;2048.00;;;;;;5035340;28;20462;-63
2020/12/13 04:48:05;;;;;;;48.78;25.35;;;204.90;2022.40;;;;;;5035298;28;20029;-63
2020/12/13 04:50:33;;;;;;;52.65;27.05;;;204.90;2022.40;;;;;;5017697;28;20104;-63
2020/12/13 04:53:07;;;;;;;52.75;26.58;;;204.80;2022.40;;;;;;5035302;28;20422;-63
2020/12/13 04:55:58;;;;;;;58.13;29.08;;;204.80;2022.40;;;;;;5048754;28;20049;-63
2020/12/13 04:58:26;;;;;;;59.25;28.30;;;204.80;2022.40;;;;;;5055444;28;20351;-63
2020/12/13 05:01:00;;;;;;;54.00;29.23;;;204.80;2022.40;;;;;;5036951;28;20173;-63
2020/12/13 05:03:27;;;;;;;52.70;27.55;;;204.80;2022.40;;;;;;5054552;28;20029;-63
2020/12/13 05:05:58;;;;;;;52.05;27.85;;;204.90;2022.40;;;;;;5054664;28;20513;-63
2020/12/13 05:08:27;;;;;;;56.70;28.63;;;204.90;2022.40;;;;;;5054850;28;20029;-63
2020/12/13 05:10:53;;;;;;;54.78;28.33;;;204.90;2022.40;;;;;;5055209;28;20111;-62
2020/12/13 05:13:19;;;;;;;59.75;30.48;;;204.90;2022.40;;;;;;5054733;28;20112;-63
2020/12/13 05:15:45;;;;;;;59.53;31.30;;;204.90;2022.40;;;;;;5054397;28;20091;-62
2020/12/13 05:18:11;;;;;;;63.15;30.98;;;204.90;2022.40;;;;;;5054894;28;20086;-63
2020/12/13 05:20:36;;;;;;;53.47;27.50;;;204.90;2022.40;;;;;;5054930;28;20021;-64
2020/12/13 05:23:02;;;;;;;54.33;28.73;;;204.90;2022.40;;;;;;5054624;28;20075;-63
2020/12/13 05:25:30;;;;;;;58.22;27.40;;;204.90;2022.40;;;;;;5054518;28;20522;-63
2020/12/13 05:27:59;;;;;;;56.15;26.60;;;204.90;2022.40;;;;;;5054369;28;20025;-63
2020/12/13 05:30:32;;;;;;;56.20;27.83;;;204.90;2022.40;;;;;;5054811;28;20039;-63
2020/12/13 05:33:00;;;;;;;50.53;25.85;;;204.90;2022.40;;;;;;5054685;28;20037;-63
2020/12/13 05:35:28;;;;;;;50.92;25.27;;;204.90;2022.40;;;;;;5054269;28;20033;-63
2020/12/13 05:37:54;;;;;;;54.70;26.40;;;204.90;2022.40;;;;;;5054360;28;20040;-63
2020/12/13 05:40:21;;;;;;;56.42;26.92;;;204.90;2022.40;;;;;;5054603;28;20466;-64
2020/12/13 05:42:54;;;;;;;56.08;26.90;;;204.90;2022.40;;;;;;5054664;28;20025;-64
2020/12/13 05:53:02;;;;;;;56.08;27.35;;;204.90;2022.40;;;;;;5054176;28;20021;-63
2020/12/13 05:55:29;;;;;;;54.20;26.48;;;204.90;2022.40;;;;;;5054083;28;20041;-64
2020/12/13 05:57:55;;;;;;;56.42;27.90;;;204.90;1996.80;;;;;;5054489;28;20096;-63
2020/12/13 06:00:21;;;;;;;49.65;25.30;;;204.90;1996.80;;;;;;5054260;28;20057;-63
2020/12/13 06:02:49;;;;;;;48.35;25.45;;;204.90;1996.80;;;;;;5054230;28;20529;-64
2020/12/13 06:05:16;;;;;;;46.83;25.58;;;204.90;2022.40;;;;;;5054583;28;20037;-63
2020/12/13 06:07:50;;;;;;;52.10;26.20;;;204.90;1996.80;;;;;;5054610;28;20469;-63
2020/12/13 06:10:25;;;;;;;50.47;26.73;;;204.90;2022.40;;;;;;5054706;28;20348;-64
2020/12/13 06:13:07;;;;;;;53.58;29.88;;;204.90;1996.80;;;;;;5054132;28;20025;-63
2020/12/13 06:15:35;;;;;;;55.45;28.67;;;204.90;1996.80;;;;;;5054145;28;20037;-63
2020/12/13 06:18:05;;;;;;;56.72;29.35;;;204.90;1996.80;;;;;;5054163;28;20033;-63
2020/12/13 06:20:34;;;;;;;55.92;28.65;;;204.90;2022.40;;;;;;5053944;28;20462;-63
2020/12/13 06:23:01;;;;;;;56.58;28.75;;;204.90;1996.80;;;;;;5053859;28;20033;-62
2020/12/13 06:25:27;;;;;;;59.63;31.75;;;204.90;2022.40;;;;;;5054052;28;20022;-63
2020/12/13 06:27:54;;;;;;;62.65;34.13;;;204.90;2022.40;;;;;;5053869;28;20025;-63
2020/12/13 06:30:21;;;;;;;60.88;33.10;;;204.90;1996.80;;;;;;5053980;28;20055;-63
2020/12/13 06:32:50;;;;;;;63.53;33.13;;;204.90;2022.40;;;;;;5054196;28;20025;-63
2020/12/13 06:35:17;;;;;;;60.25;32.75;;;204.90;2022.40;;;;;;5053914;28;20033;-64
2020/12/13 06:37:43;;;;;;;62.25;32.20;;;204.90;2022.40;;;;;;5053859;28;20025;-64
2020/12/13 06:40:16;;;;;;;63.15;32.85;;;204.90;2022.40;;;;;;5053744;28;20040;-64
2020/12/13 06:42:45;;;;;;;56.55;30.73;;;204.90;2022.40;;;;;;5053800;28;20028;-64
2020/12/13 06:45:13;;;;;;;58.20;30.02;;;204.90;2022.40;;;;;;5053788;28;20032;-63
2020/12/13 06:47:46;;;;;;;55.25;29.17;;;204.90;1996.80;;;;;;5053536;28;20028;-63
2020/12/13 06:50:23;;;;;;;59.30;30.75;;;204.90;1996.80;;;;;;5053661;28;20049;-63
2020/12/13 06:52:52;;;;;;;61.95;31.65;;;204.90;1996.80;;;;;;5053608;28;20378;-63
2020/12/13 06:55:29;;;;;;;57.58;29.35;;;204.90;1996.80;;;;;;5053321;28;20057;-64
2020/12/13 06:57:55;;;;;;;70.30;34.15;;;204.90;1996.80;;;;;;5054045;28;20032;-64
2020/12/13 07:00:21;;;;;;;73.97;37.58;;;204.90;1996.80;;;;;;5053760;28;20383;-63
2020/12/13 07:02:56;;;;;;;88.93;45.55;;;204.90;1996.80;;;;;;5053700;28;20021;-63
2020/12/13 07:05:23;;;;;;;82.65;40.97;;;204.90;1996.80;;;;;;5053939;28;20093;-63
2020/12/13 07:07:52;;;;;;;82.85;42.50;;;204.90;1996.80;;;;;;5058109;28;20024;-64
2020/12/13 07:10:18;;;;;;;91.03;42.50;;;204.90;1996.80;;;;;;5057625;28;20104;-64
2020/12/13 07:12:53;;;;;;;90.32;45.05;;;204.90;1996.80;;;;;;5057752;28;20036;-64
2020/12/13 07:15:29;;;;;;;;;;;204.90;2022.40;;;;;;5058117;28;20370;-64
2020/12/13 07:17:57;;;;;;;102.10;49.72;;;204.90;1996.80;;;;;;5057417;28;19905;-63
2020/12/13 07:20:23;;;;;;;94.78;49.05;;;204.90;2022.40;;;;;;5057477;28;20463;-63
2020/12/13 07:22:55;;;;;;;95.90;49.75;;;204.90;2022.40;;;;;;5057600;28;20544;-64
2020/12/13 07:25:21;;;;;;;99.55;52.40;;;204.90;1996.80;;;;;;5057227;28;20048;-65
2020/12/13 07:27:48;;;;;;;87.00;48.85;;;204.90;2022.40;;;;;;5057120;28;20040;-65
2020/12/13 07:30:14;;;;;;;88.32;47.75;;;204.90;2022.40;;;;;;5057448;28;20021;-65
2020/12/13 07:32:39;;;;;;;88.43;45.40;;;204.90;2022.40;;;;;;5056952;28;20052;-64
2020/12/13 07:35:11;;;;;;;81.22;42.50;;;204.90;2022.40;;;;;;5057108;28;20106;-64
2020/12/13 07:37:37;;;;;;;71.80;40.40;;;205.00;1996.80;;;;;;5057262;28;20382;-64
2020/12/13 07:40:13;;;;;;;83.03;44.38;;;205.00;1996.80;;;;;;5057044;28;20040;-65
2020/12/13 07:42:39;;;;;;;86.85;46.22;;;205.00;1996.80;;;;;;5056963;28;20462;-64
2020/12/13 07:45:05;;;;;;;73.28;41.95;;;205.00;1996.80;;;;;;5057334;28;20110;-64
2020/12/13 07:47:31;;;;;;;77.20;40.25;;;205.00;1996.80;;;;;;5057001;28;20021;-64
2020/12/13 07:50:05;;;;;;;77.60;42.45;;;205.00;1996.80;;;;;;5057021;28;20032;-66
2020/12/13 07:52:31;;;;;;;75.35;40.40;;;205.10;1996.80;;;;;;5056817;28;20029;-65
2020/12/13 07:55:15;;;;;;;78.30;42.72;;;205.10;1996.80;;;;;;5056505;28;20421;-65
2020/12/13 07:57:47;;;;;;;88.60;45.55;;;205.10;1996.80;;;;;;5056895;28;20027;-66
2020/12/13 08:00:13;;;;;;;105.28;54.08;;;205.10;1996.80;;;;;;5056879;28;20352;-65
2020/12/13 08:02:39;;;;;;;149.07;66.95;;;205.20;1996.80;;;;;;5056841;28;20033;-65
2020/12/13 08:05:05;;;;;;;120.68;55.80;;;205.20;1996.80;;;;;;5056596;28;20079;-65
2020/12/13 08:07:30;;;;;;;163.90;61.92;;;205.20;1971.20;;;;;;5056136;28;20032;-65
2020/12/13 08:09:57;;;;;;;135.82;53.55;;;205.20;1971.20;;;;;;5056853;28;20095;-65
2020/12/13 08:12:45;;;;;;;144.23;54.75;;;205.20;1971.20;;;;;;5056522;28;20033;-65
2020/12/13 08:15:14;;;;;;;164.07;57.20;;;205.20;1971.20;;;;;;5056527;28;20048;-65
2020/12/13 08:17:41;;;;;;;130.05;51.03;;;205.20;1971.20;;;;;;5055984;28;20079;-65
2020/12/13 08:20:08;;;;;;;112.30;43.22;;;205.20;1971.20;;;;;;5056238;28;20029;-65
2020/12/13 08:22:37;;;;;;;117.32;46.25;;;205.30;1971.20;;;;;;5056262;28;20109;-65
2020/12/13 08:25:06;;;;;;;112.95;46.10;;;205.30;1971.20;;;;;;5056266;28;20035;-65
2020/12/13 08:27:36;;;;;;;91.72;43.40;;;205.30;1971.20;;;;;;5056227;28;20020;-65
2020/12/13 08:30:04;;;;;;;113.32;50.88;;;205.30;1945.60;;;;;;5056213;28;20374;-65
2020/12/13 08:32:32;;;;;;;133.80;61.55;;;205.40;1971.20;;;;;;5056318;28;20067;-64
2020/12/13 08:35:18;;;;;;;130.20;60.45;;;205.40;1971.20;;;;;;5055967;28;20488;-65
2020/12/13 08:38:01;;;;;;;110.75;52.25;;;205.40;1945.60;;;;;;5056100;28;20021;-66
2020/12/13 08:40:44;;;;;;;94.63;46.60;;;205.30;1945.60;;;;;;5056018;28;20029;-65
2020/12/13 08:43:17;;;;;;;73.40;39.55;;;205.30;1945.60;;;;;;5055983;28;20071;-65
2020/12/13 08:45:50;;;;;;;73.07;40.13;;;205.40;1945.60;;;;;;5056008;28;20033;-66
2020/12/13 08:48:27;;;;;;;80.50;40.08;;;205.40;1945.60;;;;;;5055994;28;20163;-65
2020/12/13 08:51:14;;;;;;;85.03;39.85;;;205.40;1945.60;;;;;;5055822;28;20481;-65
2020/12/13 08:53:39;;;;;;;91.45;41.65;;;205.40;1945.60;;;;;;5055356;28;20490;-64
2020/12/13 08:56:07;;;;;;;91.40;42.42;;;205.40;1945.60;;;;;;5055762;28;20053;-64
2020/12/13 08:58:50;;;;;;;77.38;38.22;;;205.50;1945.60;;;;;;5055784;28;20049;-65
2020/12/13 09:01:16;;;;;;;89.55;40.45;;;205.50;1945.60;;;;;;5055597;28;20130;-64
2020/12/13 09:03:42;;;;;;;79.18;39.28;;;205.50;1945.60;;;;;;5055621;28;20023;-64
2020/12/13 09:06:08;;;;;;;72.70;37.58;;;205.50;1945.60;;;;;;5055550;28;20029;-65
2020/12/13 09:08:33;;;;;;;57.58;34.03;;;205.60;1920.00;;;;;;5055553;28;20028;-64
2020/12/13 09:11:04;;;;;;;54.20;32.17;;;205.70;1920.00;;;;;;5055336;28;20513;-63
2020/12/13 09:13:31;;;;;;;55.50;34.58;;;205.70;1920.00;;;;;;5055344;28;20090;-64
2020/12/13 09:15:57;;;;;;;90.88;38.22;;;205.70;1920.00;;;;;;5055460;28;20414;-65
2020/12/13 09:18:23;;;;;;;72.93;36.03;;;205.70;1894.40;;;;;;5055998;28;20025;-65
2020/12/13 09:20:57;;;;;;;61.35;31.77;;;205.70;1894.40;;;;;;5055362;28;20505;-65
2020/12/13 09:23:23;;;;;;;54.50;30.13;;;205.70;1894.40;;;;;;5055466;28;20119;-64
2020/12/13 09:25:51;;;;;;;57.30;29.67;;;230.40;1894.40;;;;;;5055279;28;20125;-65
2020/12/13 09:28:17;;;;;;;82.60;39.50;;;230.40;1894.40;;;;;;5046476;28;20025;-65
2020/12/13 09:30:43;;;;;;;95.28;39.35;;;230.40;1894.40;;;;;;5055133;28;20348;-65
2020/12/13 09:33:10;;;;;;;99.80;43.33;;;230.40;1894.40;;;;;;5054717;28;20025;-66
2020/12/13 09:35:36;;;;;;;90.43;41.08;;;230.40;1920.00;;;;;;5054944;28;20059;-64
2020/12/13 09:38:04;;;;;;;90.22;40.75;;;230.40;1894.40;;;;;;5055283;28;20057;-64
2020/12/13 09:40:33;;;;;;;94.72;42.90;;;230.40;1894.40;;;;;;5054662;28;20027;-67
2020/12/13 09:42:59;;;;;;;97.40;44.05;;;230.40;1920.00;;;;;;5054788;28;20037;-64
2020/12/13 09:45:25;;;;;;;88.10;42.78;;;230.50;1945.60;;;;;;5054877;28;20025;-64
2020/12/13 09:47:56;;;;;;;83.82;43.17;;;230.50;1920.00;;;;;;5054772;28;20071;-64
2020/12/13 09:50:26;;;;;;;84.43;43.05;;;230.60;1920.00;;;;;;5054613;28;20115;-65
2020/12/13 09:52:52;;;;;;;79.72;44.33;;;230.70;1920.00;;;;;;5054503;28;20057;-66
2020/12/13 09:55:17;;;;;;;70.63;37.22;;;230.70;1894.40;;;;;;5054466;28;20052;-65
2020/12/13 09:57:43;;;;;;;70.28;36.30;;;230.80;1894.40;;;;;;5054435;28;20083;-65
2020/12/13 10:00:09;;;;;;;62.40;32.92;;;230.80;1894.40;;;;;;5054528;28;20033;-66
2020/12/13 10:02:35;;;;;;;57.90;31.00;;;230.80;1868.80;;;;;;5054532;28;20025;-66
2020/12/13 10:05:02;;;;;;;58.15;33.58;;;230.80;1868.80;;;;;;5054358;28;20037;-65
2020/12/13 10:10:12;;;;;;;63.17;31.05;;;230.90;1868.80;;;;;;5054416;28;20351;-65
2020/12/13 10:12:38;;;;;;;62.75;34.00;;;230.90;1868.80;;;;;;5054092;28;20021;-65
2020/12/13 10:15:04;;;;;;;54.58;30.48;;;230.90;1868.80;;;;;;5053425;28;20048;-65
2020/12/13 10:17:30;;;;;;;57.00;32.92;;;231.00;1843.20;;;;;;5054204;28;20045;-64
2020/12/13 10:19:56;;;;;;;52.30;31.27;;;231.00;1868.80;;;;;;5053992;28;20037;-67
2020/12/13 10:22:21;;;;;;;54.08;31.73;;;230.90;1843.20;;;;;;5054006;28;20052;-66
2020/12/13 10:24:47;;;;;;;50.55;30.75;;;230.90;1843.20;;;;;;5054135;28;20056;-66
2020/12/13 10:27:13;;;;;;;54.20;32.25;;;230.90;1843.20;;;;;;5054091;28;20087;-65
2020/12/13 10:29:39;;;;;;;56.08;32.92;;;230.80;1868.80;;;;;;5054032;28;20048;-65
2020/12/13 10:32:04;;;;;;;61.70;33.30;;;230.90;1868.80;;;;;;5054287;28;20112;-65
2020/12/13 10:34:30;;;;;;;76.78;38.38;;;230.90;1868.80;;;;;;5053890;28;20459;-65
2020/12/13 10:36:56;;;;;;;71.13;36.40;;;230.80;1843.20;;;;;;5053889;28;20112;-65
2020/12/13 10:39:22;;;;;;;63.60;35.25;;;230.80;1868.80;;;;;;5054232;28;20056;-65
2020/12/13 10:41:51;;;;;;;73.50;38.35;;;230.80;1868.80;;;;;;5053730;28;20024;-65
2020/12/13 10:44:19;;;;;;;68.38;37.75;;;230.80;1868.80;;;;;;5053724;28;20032;-65
2020/12/13 10:46:48;;;;;;;79.60;39.25;;;230.80;1868.80;;;;;;5053729;28;20028;-66
2020/12/13 10:49:14;;;;;;;73.63;37.75;;;230.80;1868.80;;;;;;5053538;28;20021;-66
2020/12/13 10:51:40;;;;;;;63.85;36.13;;;230.80;1868.80;;;;;;5053497;28;20032;-66
2020/12/13 10:54:06;;;;;;;78.88;42.13;;;230.80;1868.80;;;;;;5049155;28;20040;-68
2020/12/13 10:56:32;;;;;;;76.28;39.38;;;230.90;1868.80;;;;;;5047429;28;20033;-66
2020/12/13 10:58:57;;;;;;;60.47;34.25;;;230.90;1868.80;;;;;;5052662;28;20034;-65
2020/12/13 11:01:23;;;;;;;69.30;36.90;;;230.90;1868.80;;;;;;5053396;28;20414;-65
2020/12/13 11:03:49;;;;;;;61.28;32.42;;;230.90;1843.20;;;;;;5053429;28;20040;-65
2020/12/13 11:06:15;;;;;;;61.22;31.90;;;230.90;1843.20;;;;;;5053322;28;20051;-65
2020/12/13 11:08:40;;;;;;;55.03;31.50;;;230.90;1843.20;;;;;;5053549;28;20060;-66
2020/12/13 11:11:06;;;;;;;57.90;27.90;;;230.90;1843.20;;;;;;5053606;28;20056;-67
2020/12/13 11:13:33;;;;;;;51.15;26.73;;;230.90;1843.20;;;;;;5053437;28;20079;-67
2020/12/13 11:15:59;;;;;;;52.20;25.92;;;230.90;1843.20;;;;;;5053639;28;20433;-67
2020/12/13 11:18:29;;;;;;;59.38;29.95;;;230.90;1868.80;;;;;;5053311;28;20025;-67
2020/12/13 11:20:56;;;;;;;66.93;34.15;;;230.80;1868.80;;;;;;5053369;28;20025;-67
2020/12/13 11:23:21;;;;;;;73.90;40.38;;;230.80;1868.80;;;;;;5053400;28;20073;-66
2020/12/13 11:25:52;;;;;;;69.32;38.58;;;230.80;1868.80;;;;;;5053564;28;20064;-67
2020/12/13 11:28:18;;;;;;;72.07;40.40;;;230.70;1868.80;;;;;;5053224;28;20025;-66
2020/12/13 11:30:44;;;;;;;92.43;45.90;;;230.80;1894.40;;;;;;5053153;28;20025;-67
2020/12/13 11:33:10;;;;;;;92.63;44.13;;;230.80;1868.80;;;;;;5052995;28;20025;-66
2020/12/13 11:35:38;;;;;;;79.63;41.28;;;230.80;1868.80;;;;;;5053109;28;20402;-67
2020/12/13 11:38:04;;;;;;;74.95;39.58;;;230.80;1868.80;;;;;;5052907;28;20024;-66
2020/12/13 11:40:31;;;;;;;65.78;34.40;;;230.90;1843.20;;;;;;5053049;28;20021;-67
2020/12/13 11:42:57;;;;;;;66.45;33.17;;;230.90;1843.20;;;;;;5053124;28;20100;-66
2020/12/13 11:45:24;;;;;;;59.22;33.13;;;230.90;1843.20;;;;;;5053057;28;20021;-66
2020/12/13 11:47:49;;;;;;;57.55;30.42;;;231.00;1843.20;;;;;;5053219;28;20021;-65
2020/12/13 11:50:15;;;;;;;57.58;29.15;;;230.90;1843.20;;;;;;5052998;28;20462;-64
2020/12/13 11:52:41;;;;;;;49.22;27.92;;;231.00;1843.20;;;;;;5056263;28;20071;-65
2020/12/13 11:55:07;;;;;;;52.67;28.88;;;231.00;1843.20;;;;;;5056710;28;20148;-65
2020/12/13 11:57:34;;;;;;;55.97;31.70;;;230.90;1843.20;;;;;;5057011;28;20082;-65
2020/12/13 11:59:59;;;;;;;52.47;31.25;;;230.90;1843.20;;;;;;5056714;28;20029;-67
2020/12/13 12:02:25;;;;;;;56.40;31.25;;;231.00;1843.20;;;;;;5056730;28;20351;-69
2020/12/13 12:04:51;;;;;;;65.80;34.67;;;231.00;1843.20;;;;;;5056129;28;20036;-69
2020/12/13 12:07:16;;;;;;;73.97;35.72;;;231.00;1843.20;;;;;;5056576;28;20103;-69
2020/12/13 12:09:42;;;;;;;71.03;34.95;;;231.00;1843.20;;;;;;5056702;28;20032;-69
2020/12/13 12:12:08;;;;;;;63.75;36.00;;;231.00;1843.20;;;;;;5056614;28;20486;-69
2020/12/13 12:14:34;;;;;;;71.18;37.22;;;231.00;1843.20;;;;;;5056418;28;20039;-68